Time;durP1;ratioP1;P1;durP2;ratioP2;P2;SDS_P1;SDS_P2;PMS_P1;PMS_P2;Temp;Humidity;BMP_temperature;BMP_pressure;BME280_temperature;BME280_humidity;BME280_pressure;Samples;Min_cycle;Max_cycle;Signal;HPM_P1;HPM_P2
2022/03/27 00:02:06;;;;;;;62.78;32.95;;;;;;;;;;6221283;28;20124;-72
2022/03/27 00:05:09;;;;;;;61.88;33.00;;;;;;;;;;6221170;28;20158;-70
2022/03/27 00:08:11;;;;;;;62.35;33.90;;;;;;;;;;6221266;28;20387;-70
2022/03/27 00:11:28;;;;;;;62.17;32.67;;;;;;;;;;6220501;28;20157;-73
2022/03/27 00:14:31;;;;;;;57.97;32.53;;;;;;;;;;6221724;28;20057;-72
2022/03/27 00:17:34;;;;;;;60.93;34.00;;;;;;;;;;6221269;28;20054;-72
2022/03/27 00:20:35;;;;;;;60.42;33.13;;;;;;;;;;6222394;28;20050;-72
2022/03/27 00:23:37;;;;;;;57.67;31.38;;;;;;;;;;6223143;28;20180;-72
2022/03/27 00:26:39;;;;;;;61.45;33.50;;;;;;;;;;6221251;28;20040;-72
2022/03/27 00:29:42;;;;;;;63.17;33.60;;;;;;;;;;6221093;28;20524;-72
2022/03/27 00:32:43;;;;;;;60.38;32.42;;;;;;;;;;6222677;28;20045;-72
2022/03/27 00:35:45;;;;;;;63.35;33.05;;;;;;;;;;6223377;28;20137;-72
2022/03/27 00:38:47;;;;;;;59.72;32.03;;;;;;;;;;6221836;28;20139;-72
2022/03/27 00:41:49;;;;;;;60.22;31.75;;;;;;;;;;6222757;28;20068;-72
2022/03/27 00:44:52;;;;;;;59.58;32.50;;;;;;;;;;6220940;28;20481;-72
2022/03/27 00:47:54;;;;;;;68.97;31.50;;;;;;;;;;6221158;28;20390;-69
2022/03/27 00:50:56;;;;;;;76.80;32.72;;;;;;;;;;6220077;28;20125;-72
2022/03/27 00:53:57;;;;;;;61.15;32.80;;;;;;;;;;6222352;28;20128;-71
2022/03/27 00:56:59;;;;;;;60.20;32.78;;;;;;;;;;6219717;28;20176;-71
2022/03/27 01:00:02;;;;;;;59.97;32.05;;;;;;;;;;6222396;28;20060;-72
2022/03/27 01:03:05;;;;;;;61.80;34.70;;;;;;;;;;6222856;28;20050;-71
2022/03/27 01:06:19;;;;;;;59.42;31.17;;;;;;;;;;6224023;28;20073;-70
2022/03/27 01:09:40;;;;;;;;;;;;;;;;;;6223375;28;20425;-72
2022/03/27 01:12:42;;;;;;;52.97;28.67;;;;;;;;;;6220189;28;19921;-72
2022/03/27 01:15:49;;;;;;;68.32;33.20;;;;;;;;;;6222545;28;20575;-72
2022/03/27 01:18:51;;;;;;;62.20;31.25;;;;;;;;;;6221454;28;20046;-73
2022/03/27 01:21:54;;;;;;;65.30;31.63;;;;;;;;;;6220207;28;20519;-71
2022/03/27 01:24:55;;;;;;;66.97;34.25;;;;;;;;;;6220773;28;20096;-72
2022/03/27 01:27:57;;;;;;;56.97;32.67;;;;;;;;;;6221855;28;20046;-69
2022/03/27 01:30:59;;;;;;;56.55;30.20;;;;;;;;;;6220114;28;20111;-73
2022/03/27 01:34:01;;;;;;;56.75;30.58;;;;;;;;;;6220188;28;20073;-69
2022/03/27 01:37:07;;;;;;;56.70;31.77;;;;;;;;;;6221292;28;20093;-70
2022/03/27 01:40:09;;;;;;;58.80;30.58;;;;;;;;;;6221763;28;20121;-69
2022/03/27 01:43:11;;;;;;;56.55;29.67;;;;;;;;;;6221189;28;20124;-73
2022/03/27 01:46:12;;;;;;;54.63;30.52;;;;;;;;;;6221952;28;20060;-70
2022/03/27 01:49:15;;;;;;;52.05;30.48;;;;;;;;;;6222082;28;20090;-70
2022/03/27 01:52:18;;;;;;;53.33;30.30;;;;;;;;;;6220308;28;20184;-72
2022/03/27 01:55:19;;;;;;;56.47;30.48;;;;;;;;;;6218463;28;20052;-70
2022/03/27 01:58:21;;;;;;;59.63;31.10;;;;;;;;;;6218641;28;20041;-73
2022/03/27 02:01:23;;;;;;;64.07;31.55;;;;;;;;;;6219849;28;20057;-70
2022/03/27 02:04:25;;;;;;;55.08;31.45;;;;;;;;;;6220172;28;20119;-71
2022/03/27 02:07:28;;;;;;;51.17;29.27;;;;;;;;;;6219723;28;20053;-70
2022/03/27 02:10:29;;;;;;;49.30;29.70;;;;;;;;;;6218974;28;20133;-69
2022/03/27 02:13:31;;;;;;;57.63;30.63;;;;;;;;;;6220657;28;20184;-70
2022/03/27 02:16:33;;;;;;;54.40;29.25;;;;;;;;;;6220732;28;20065;-70
2022/03/27 02:19:34;;;;;;;55.17;30.13;;;;;;;;;;6220792;28;20132;-71
2022/03/27 02:22:37;;;;;;;46.10;28.63;;;;;;;;;;6217020;28;20046;-70
2022/03/27 02:25:40;;;;;;;56.42;29.63;;;;;;;;;;6219164;28;20061;-69
2022/03/27 02:28:42;;;;;;;51.53;28.45;;;;;;;;;;6218181;28;20482;-71
2022/03/27 02:31:44;;;;;;;59.30;28.70;;;;;;;;;;6218775;28;20391;-70
2022/03/27 02:34:46;;;;;;;54.37;30.07;;;;;;;;;;6220801;28;20042;-70
2022/03/27 02:37:50;;;;;;;54.88;30.27;;;;;;;;;;6222592;28;20049;-70
2022/03/27 02:40:51;;;;;;;55.75;30.50;;;;;;;;;;6222615;28;20119;-71
2022/03/27 02:43:53;;;;;;;56.83;28.52;;;;;;;;;;6222671;28;20085;-71
2022/03/27 02:46:54;;;;;;;50.63;27.95;;;;;;;;;;6222485;28;20132;-70
2022/03/27 02:49:56;;;;;;;55.95;28.95;;;;;;;;;;6223636;28;20509;-71
2022/03/27 02:52:59;;;;;;;54.80;28.80;;;;;;;;;;6224010;28;20044;-71
2022/03/27 02:56:03;;;;;;;52.13;28.65;;;;;;;;;;6223444;28;20493;-71
2022/03/27 02:59:05;;;;;;;52.17;28.55;;;;;;;;;;6221316;28;20045;-72
2022/03/27 03:02:07;;;;;;;59.90;29.75;;;;;;;;;;6223275;28;20058;-73
2022/03/27 03:05:10;;;;;;;55.72;29.65;;;;;;;;;;6222944;28;20053;-71
2022/03/27 03:08:13;;;;;;;56.38;29.75;;;;;;;;;;6223475;28;20065;-71
2022/03/27 03:11:15;;;;;;;58.85;29.88;;;;;;;;;;6225079;28;20442;-72
2022/03/27 03:14:17;;;;;;;53.08;29.63;;;;;;;;;;6223741;28;20058;-71
2022/03/27 03:17:20;;;;;;;59.70;29.50;;;;;;;;;;6223717;28;20076;-73
2022/03/27 03:20:22;;;;;;;58.40;30.30;;;;;;;;;;6221761;28;20070;-72
2022/03/27 03:23:25;;;;;;;54.08;28.77;;;;;;;;;;6225149;28;20080;-72
2022/03/27 03:26:26;;;;;;;55.20;29.25;;;;;;;;;;6224414;28;20121;-71
2022/03/27 03:29:28;;;;;;;57.53;29.40;;;;;;;;;;6220832;28;20184;-72
2022/03/27 03:32:30;;;;;;;57.05;28.65;;;;;;;;;;6221821;28;20490;-71
2022/03/27 03:35:32;;;;;;;62.38;31.00;;;;;;;;;;6222352;28;20133;-71
2022/03/27 03:38:35;;;;;;;56.85;28.85;;;;;;;;;;6220751;28;20081;-70
2022/03/27 03:41:36;;;;;;;54.35;30.13;;;;;;;;;;6222940;28;20091;-72
2022/03/27 03:44:38;;;;;;;55.00;28.13;;;;;;;;;;6222154;28;20049;-71
2022/03/27 03:47:40;;;;;;;55.65;28.95;;;;;;;;;;6222024;28;20069;-72
2022/03/27 03:50:41;;;;;;;54.55;29.17;;;;;;;;;;6222712;28;20563;-72
2022/03/27 03:53:44;;;;;;;56.53;28.50;;;;;;;;;;6222588;28;20169;-71
2022/03/27 03:56:46;;;;;;;57.65;29.23;;;;;;;;;;6222141;28;20065;-71
2022/03/27 03:59:47;;;;;;;54.63;28.75;;;;;;;;;;6220584;28;20553;-72
2022/03/27 04:02:49;;;;;;;52.28;28.10;;;;;;;;;;6223132;28;20038;-73
2022/03/27 04:05:50;;;;;;;55.42;28.20;;;;;;;;;;6222219;28;20046;-72
2022/03/27 04:08:53;;;;;;;55.47;28.75;;;;;;;;;;6220449;28;20494;-70
2022/03/27 04:11:55;;;;;;;56.40;29.05;;;;;;;;;;6223542;28;20198;-72
2022/03/27 04:14:56;;;;;;;53.67;28.38;;;;;;;;;;6221824;28;20046;-70
2022/03/27 04:18:00;;;;;;;50.00;28.73;;;;;;;;;;6222820;28;20109;-71
2022/03/27 04:21:01;;;;;;;52.60;27.67;;;;;;;;;;6222810;28;20069;-72
2022/03/27 04:24:06;;;;;;;60.70;29.17;;;;;;;;;;6223076;28;20184;-71
2022/03/27 04:27:07;;;;;;;57.45;28.95;;;;;;;;;;6222160;28;20052;-70
2022/03/27 04:30:12;;;;;;;56.20;27.17;;;;;;;;;;6222840;28;20203;-72
2022/03/27 04:33:13;;;;;;;50.50;28.27;;;;;;;;;;6221274;28;20121;-73
2022/03/27 04:36:15;;;;;;;55.53;28.88;;;;;;;;;;6223331;28;20046;-73
2022/03/27 04:39:18;;;;;;;56.92;27.65;;;;;;;;;;6222446;28;20514;-74
2022/03/27 04:42:20;;;;;;;56.07;28.80;;;;;;;;;;6223201;28;20398;-73
2022/03/27 04:45:22;;;;;;;54.60;28.05;;;;;;;;;;6223033;28;20042;-75
2022/03/27 04:48:25;;;;;;;55.50;27.45;;;;;;;;;;6221988;28;20053;-74
2022/03/27 04:51:27;;;;;;;54.00;28.83;;;;;;;;;;6221228;28;20042;-73
2022/03/27 04:54:32;;;;;;;50.83;26.60;;;;;;;;;;6221983;28;20501;-72
2022/03/27 04:57:34;;;;;;;45.30;26.63;;;;;;;;;;6222762;28;20184;-71
2022/03/27 05:00:35;;;;;;;47.45;25.50;;;;;;;;;;6222998;28;20579;-70
2022/03/27 05:03:37;;;;;;;53.58;27.00;;;;;;;;;;6224576;28;20184;-70
2022/03/27 05:06:39;;;;;;;51.92;27.10;;;;;;;;;;6220926;28;20192;-72
2022/03/27 05:09:42;;;;;;;50.30;25.50;;;;;;;;;;6224407;28;20069;-70
2022/03/27 05:12:43;;;;;;;57.17;27.20;;;;;;;;;;6221019;28;20173;-70
2022/03/27 05:15:45;;;;;;;55.72;29.27;;;;;;;;;;6221808;28;20050;-71
2022/03/27 05:18:48;;;;;;;56.15;26.48;;;;;;;;;;6221815;28;20531;-71
2022/03/27 05:21:49;;;;;;;48.05;25.80;;;;;;;;;;6222448;28;20046;-71
2022/03/27 05:24:52;;;;;;;57.33;26.73;;;;;;;;;;6216658;28;20050;-71
2022/03/27 05:27:55;;;;;;;60.90;26.52;;;;;;;;;;6219603;28;20082;-71
2022/03/27 05:30:57;;;;;;;51.00;25.13;;;;;;;;;;6220273;28;20136;-70
2022/03/27 05:33:58;;;;;;;47.13;25.15;;;;;;;;;;6217835;28;20050;-71
2022/03/27 05:37:00;;;;;;;45.67;24.65;;;;;;;;;;6219506;28;20080;-70
2022/03/27 05:40:04;;;;;;;56.70;25.17;;;;;;;;;;6220063;28;20173;-71
2022/03/27 05:43:06;;;;;;;49.83;25.75;;;;;;;;;;6219373;28;20144;-71
2022/03/27 05:46:07;;;;;;;46.35;24.38;;;;;;;;;;6219936;28;20057;-70
2022/03/27 05:49:09;;;;;;;55.53;25.48;;;;;;;;;;6219015;28;20107;-71
2022/03/27 05:52:14;;;;;;;74.95;28.23;;;;;;;;;;6219682;28;20117;-71
2022/03/27 05:55:17;;;;;;;64.60;26.38;;;;;;;;;;6214495;28;20049;-70
2022/03/27 05:58:19;;;;;;;70.23;27.60;;;;;;;;;;6218911;28;20046;-71
2022/03/27 06:01:20;;;;;;;49.25;25.08;;;;;;;;;;6219341;28;20553;-70
2022/03/27 06:04:22;;;;;;;44.85;25.73;;;;;;;;;;6219017;28;20046;-71
2022/03/27 06:07:23;;;;;;;52.67;26.38;;;;;;;;;;6219520;28;20076;-70
2022/03/27 06:10:31;;;;;;;49.17;24.90;;;;;;;;;;6221730;28;20456;-71
2022/03/27 06:13:33;;;;;;;49.08;26.02;;;;;;;;;;6224877;28;20283;-71
2022/03/27 06:16:34;;;;;;;54.92;27.45;;;;;;;;;;6223818;28;20100;-71
2022/03/27 06:19:36;;;;;;;51.33;26.08;;;;;;;;;;6224394;28;20520;-71
2022/03/27 06:22:39;;;;;;;47.20;25.55;;;;;;;;;;6223470;28;20121;-70
2022/03/27 06:25:42;;;;;;;48.22;25.88;;;;;;;;;;6223378;28;20513;-69
2022/03/27 06:28:44;;;;;;;41.60;24.75;;;;;;;;;;6223425;28;20552;-71
2022/03/27 06:31:46;;;;;;;42.17;24.45;;;;;;;;;;6223864;28;20057;-69
2022/03/27 06:34:47;;;;;;;48.92;26.05;;;;;;;;;;6223525;28;20073;-74
2022/03/27 06:37:49;;;;;;;45.05;25.52;;;;;;;;;;6223653;28;20046;-70
2022/03/27 06:40:52;;;;;;;43.80;24.65;;;;;;;;;;6223236;28;20180;-69
2022/03/27 06:43:54;;;;;;;47.15;24.60;;;;;;;;;;6223635;28;20131;-69
2022/03/27 06:46:56;;;;;;;42.03;23.55;;;;;;;;;;6223185;28;20058;-76
2022/03/27 06:49:59;;;;;;;45.95;24.58;;;;;;;;;;6223923;28;20131;-75
2022/03/27 06:53:01;;;;;;;48.00;25.83;;;;;;;;;;6222859;28;20054;-69
2022/03/27 06:56:04;;;;;;;43.30;24.55;;;;;;;;;;6223275;28;20140;-68
2022/03/27 06:59:06;;;;;;;44.70;25.45;;;;;;;;;;6220902;28;20056;-68
2022/03/27 07:05:26;;;;;;;42.83;25.27;;;;;;;;;;6222517;28;20482;-68
2022/03/27 07:08:28;;;;;;;49.25;28.90;;;;;;;;;;6222457;28;20061;-71
2022/03/27 07:11:31;;;;;;;47.25;27.75;;;;;;;;;;6223398;28;20133;-70
2022/03/27 07:14:33;;;;;;;46.50;27.27;;;;;;;;;;6222388;28;20350;-69
2022/03/27 07:17:43;;;;;;;47.22;27.70;;;;;;;;;;6222940;28;20054;-70
2022/03/27 07:20:46;;;;;;;48.88;27.95;;;;;;;;;;6221883;28;20124;-69
2022/03/27 07:23:48;;;;;;;50.72;28.75;;;;;;;;;;6222933;28;20125;-75
2022/03/27 07:26:50;;;;;;;46.20;27.95;;;;;;;;;;6222383;28;20088;-69
2022/03/27 07:29:52;;;;;;;55.17;30.02;;;;;;;;;;6220182;28;20199;-70
2022/03/27 07:32:54;;;;;;;70.70;31.42;;;;;;;;;;6222252;28;20597;-66
2022/03/27 07:35:56;;;;;;;96.43;33.08;;;;;;;;;;6222354;28;20506;-64
2022/03/27 07:38:57;;;;;;;52.83;30.55;;;;;;;;;;6222145;28;20046;-67
2022/03/27 07:42:00;;;;;;;86.18;34.88;;;;;;;;;;6222600;28;20528;-65
2022/03/27 07:45:02;;;;;;;57.05;31.17;;;;;;;;;;6221851;28;20038;-67
2022/03/27 07:48:04;;;;;;;51.78;31.17;;;;;;;;;;6224350;28;20093;-67
2022/03/27 07:51:06;;;;;;;51.80;30.75;;;;;;;;;;6223449;28;20470;-66
2022/03/27 07:54:08;;;;;;;48.80;30.90;;;;;;;;;;6223993;28;20495;-66
2022/03/27 07:57:11;;;;;;;57.75;32.63;;;;;;;;;;6224075;28;20215;-68
2022/03/27 08:00:14;;;;;;;47.83;30.40;;;;;;;;;;6223184;28;20072;-69
2022/03/27 08:03:15;;;;;;;52.90;30.45;;;;;;;;;;6221772;28;20121;-68
2022/03/27 08:06:17;;;;;;;51.83;30.75;;;;;;;;;;6221687;28;20123;-69
2022/03/27 08:09:18;;;;;;;45.67;28.83;;;;;;;;;;6221317;28;20129;-69
2022/03/27 08:12:21;;;;;;;54.55;29.88;;;;;;;;;;6222994;28;20567;-70
2022/03/27 08:15:23;;;;;;;48.20;29.07;;;;;;;;;;6222752;28;20057;-67
2022/03/27 08:18:25;;;;;;;48.58;30.10;;;;;;;;;;6221678;28;20042;-69
2022/03/27 08:21:26;;;;;;;44.55;28.38;;;;;;;;;;6222914;28;20037;-69
2022/03/27 08:24:28;;;;;;;53.85;31.13;;;;;;;;;;6222263;28;20050;-69
2022/03/27 08:27:33;;;;;;;51.38;31.40;;;;;;;;;;6222251;28;20994;-68
2022/03/27 08:30:35;;;;;;;45.45;29.85;;;;;;;;;;6221348;28;20457;-68
2022/03/27 08:33:37;;;;;;;53.75;30.35;;;;;;;;;;6220438;28;20485;-69
2022/03/27 08:36:39;;;;;;;47.22;30.00;;;;;;;;;;6221297;28;20407;-69
2022/03/27 08:39:44;;;;;;;51.65;29.77;;;;;;;;;;6222104;28;20053;-67
2022/03/27 08:42:47;;;;;;;55.20;32.10;;;;;;;;;;6221078;28;20129;-68
2022/03/27 08:45:49;;;;;;;49.70;32.03;;;;;;;;;;6221669;28;20056;-67
2022/03/27 08:48:51;;;;;;;51.40;30.83;;;;;;;;;;6221207;28;20117;-68
2022/03/27 08:51:57;;;;;;;46.55;30.38;;;;;;;;;;6221358;28;20057;-68
2022/03/27 08:55:03;;;;;;;49.63;31.08;;;;;;;;;;6220686;28;20133;-68
2022/03/27 08:58:08;;;;;;;45.03;32.53;;;;;;;;;;6221533;28;20524;-68
2022/03/27 09:01:11;;;;;;;50.75;32.00;;;;;;;;;;6220773;28;20465;-68
2022/03/27 09:04:14;;;;;;;;;;;;;;;;;;6221522;28;20405;-68
2022/03/27 09:07:15;;;;;;;47.03;31.45;;;;;;;;;;6220743;28;19922;-68
2022/03/27 09:10:18;;;;;;;49.55;31.15;;;;;;;;;;6221479;28;20553;-68
2022/03/27 09:13:21;;;;;;;48.53;30.35;;;;;;;;;;6221971;28;20077;-67
2022/03/27 09:16:22;;;;;;;44.60;29.63;;;;;;;;;;6221484;28;20147;-69
2022/03/27 09:19:32;;;;;;;42.58;29.20;;;;;;;;;;6220036;28;20129;-67
2022/03/27 09:22:34;;;;;;;46.00;29.20;;;;;;;;;;6219896;28;20045;-66
2022/03/27 09:25:47;;;;;;;41.17;27.83;;;;;;;;;;6222803;28;20053;-68
2022/03/27 09:28:52;;;;;;;44.15;28.02;;;;;;;;;;6220790;28;20096;-68
2022/03/27 09:31:57;;;;;;;40.08;27.00;;;;;;;;;;6218595;28;20057;-67
2022/03/27 09:35:00;;;;;;;44.28;27.50;;;;;;;;;;6219043;28;20041;-67
2022/03/27 09:38:12;;;;;;;40.28;26.75;;;;;;;;;;6219608;28;20409;-66
2022/03/27 09:41:50;;;;;;;37.47;26.77;;;;;;;;;;6217174;28;20050;-65
2022/03/27 09:45:11;;;;;;;40.60;28.90;;;;;;;;;;6211906;28;20088;-66
2022/03/27 09:48:13;;;;;;;47.78;29.70;;;;;;;;;;6221915;28;20049;-65
2022/03/27 09:51:15;;;;;;;43.38;29.75;;;;;;;;;;6220326;28;20131;-65
2022/03/27 09:54:17;;;;;;;41.85;30.05;;;;;;;;;;6221300;28;20042;-66
2022/03/27 09:57:20;;;;;;;38.85;28.65;;;;;;;;;;6220572;28;20042;-65
2022/03/27 10:00:25;;;;;;;42.90;30.45;;;;;;;;;;6221794;28;20129;-66
2022/03/27 10:03:26;;;;;;;45.75;30.80;;;;;;;;;;6218788;28;20185;-65
2022/03/27 10:06:29;;;;;;;38.50;29.20;;;;;;;;;;6219699;28;20058;-68
2022/03/27 10:09:37;;;;;;;42.75;29.17;;;;;;;;;;6220005;28;20146;-68
2022/03/27 10:12:40;;;;;;;39.53;28.27;;;;;;;;;;6219554;28;20573;-68
2022/03/27 10:15:44;;;;;;;40.75;28.83;;;;;;;;;;6222385;28;20132;-66
2022/03/27 10:18:46;;;;;;;37.03;26.98;;;;;;;;;;6222497;28;20038;-69
2022/03/27 10:21:50;;;;;;;37.38;27.25;;;;;;;;;;6223930;28;20071;-69
2022/03/27 10:24:56;;;;;;;38.17;26.52;;;;;;;;;;6220679;28;20050;-69
2022/03/27 10:27:57;;;;;;;41.67;29.33;;;;;;;;;;6220621;28;20058;-69
2022/03/27 10:31:00;;;;;;;33.38;26.25;;;;;;;;;;6220094;28;20111;-69
2022/03/27 10:34:03;;;;;;;37.42;27.50;;;;;;;;;;6219102;28;20337;-70
2022/03/27 10:37:09;;;;;;;36.97;27.58;;;;;;;;;;6218386;28;20135;-69
2022/03/27 10:40:17;;;;;;;37.35;28.08;;;;;;;;;;6220212;28;20131;-68
2022/03/27 10:43:26;;;;;;;34.25;25.92;;;;;;;;;;6217746;28;20134;-71
2022/03/27 10:46:30;;;;;;;40.00;27.25;;;;;;;;;;6218761;28;20062;-70
2022/03/27 10:49:31;;;;;;;38.15;26.75;;;;;;;;;;6219527;28;20545;-68
2022/03/27 10:52:36;;;;;;;37.38;26.48;;;;;;;;;;6219291;28;20046;-68
2022/03/27 10:55:42;;;;;;;38.60;26.98;;;;;;;;;;6218714;28;20033;-69
2022/03/27 10:58:43;;;;;;;38.65;26.55;;;;;;;;;;6221542;28;20053;-67
2022/03/27 11:01:48;;;;;;;39.25;27.58;;;;;;;;;;6224471;28;20164;-68
2022/03/27 11:04:50;;;;;;;41.13;26.88;;;;;;;;;;6223062;28;20107;-67
2022/03/27 11:07:51;;;;;;;34.92;26.38;;;;;;;;;;6224373;28;20482;-71
2022/03/27 11:10:55;;;;;;;38.00;26.10;;;;;;;;;;6224806;28;20099;-70
2022/03/27 11:13:56;;;;;;;35.53;27.75;;;;;;;;;;6223453;28;20053;-71
2022/03/27 11:17:13;;;;;;;37.13;27.33;;;;;;;;;;6222457;28;20085;-76
2022/03/27 11:20:55;;;;;;;33.08;28.00;;;;;;;;;;6223524;28;20045;-74
2022/03/27 11:24:26;;;;;;;38.90;28.60;;;;;;;;;;6223388;28;20054;-71
2022/03/27 11:27:59;;;;;;;38.00;28.38;;;;;;;;;;6222918;28;20465;-68
2022/03/27 11:31:19;;;;;;;37.40;27.35;;;;;;;;;;6215416;28;20129;-69
2022/03/27 11:34:26;;;;;;;36.38;27.17;;;;;;;;;;6223792;28;20057;-72
2022/03/27 11:37:27;;;;;;;33.65;27.70;;;;;;;;;;6224516;28;20490;-69
2022/03/27 11:40:39;;;;;;;32.97;27.23;;;;;;;;;;6223652;28;20089;-69
2022/03/27 11:43:41;;;;;;;33.38;27.27;;;;;;;;;;6224647;28;20125;-73
2022/03/27 11:46:44;;;;;;;35.75;29.60;;;;;;;;;;6221536;28;20484;-71
2022/03/27 11:49:49;;;;;;;41.25;28.23;;;;;;;;;;6223163;28;20053;-74
2022/03/27 11:52:50;;;;;;;31.35;27.98;;;;;;;;;;6220678;28;20077;-72
2022/03/27 11:55:52;;;;;;;34.08;28.83;;;;;;;;;;6223818;28;20540;-73
2022/03/27 11:59:04;;;;;;;30.40;25.90;;;;;;;;;;6223221;28;20054;-71
2022/03/27 12:02:05;;;;;;;30.15;24.42;;;;;;;;;;6224839;28;20053;-74
2022/03/27 12:05:10;;;;;;;27.20;23.42;;;;;;;;;;6221626;28;20060;-73
2022/03/27 12:08:15;;;;;;;33.08;24.15;;;;;;;;;;6220534;28;20561;-72
2022/03/27 12:11:22;;;;;;;29.60;24.17;;;;;;;;;;6221707;28;20053;-70
2022/03/27 12:14:24;;;;;;;30.15;24.20;;;;;;;;;;6222104;28;20666;-70
2022/03/27 12:17:28;;;;;;;30.63;24.95;;;;;;;;;;6222383;28;20052;-71
2022/03/27 12:20:41;;;;;;;26.30;21.02;;;;;;;;;;6222950;28;20061;-70
2022/03/27 12:23:47;;;;;;;27.88;21.45;;;;;;;;;;6223708;28;20545;-71
2022/03/27 12:30:08;;;;;;;27.45;21.05;;;;;;;;;;6221232;28;20049;-71
2022/03/27 12:33:10;;;;;;;24.48;20.42;;;;;;;;;;6220501;28;20048;-71
2022/03/27 12:36:13;;;;;;;26.42;20.35;;;;;;;;;;6221167;28;20144;-70
2022/03/27 12:39:15;;;;;;;26.80;19.60;;;;;;;;;;6220136;28;20052;-71
2022/03/27 12:42:29;;;;;;;;;;;;;;;;;;6221458;28;20046;-70
2022/03/27 12:45:32;;;;;;;25.42;19.65;;;;;;;;;;6219672;28;19921;-70
2022/03/27 12:48:33;;;;;;;26.27;20.88;;;;;;;;;;6219256;28;20050;-70
2022/03/27 12:51:36;;;;;;;24.33;19.08;;;;;;;;;;6220792;28;20085;-69
2022/03/27 12:54:56;;;;;;;22.27;18.55;;;;;;;;;;6220019;28;20136;-70
2022/03/27 12:57:59;;;;;;;24.63;18.67;;;;;;;;;;6219340;28;20128;-72
2022/03/27 13:01:05;;;;;;;22.55;18.63;;;;;;;;;;6219830;28;20506;-72
2022/03/27 13:04:08;;;;;;;24.15;18.75;;;;;;;;;;6220428;28;20045;-72
2022/03/27 13:07:12;;;;;;;18.05;16.08;;;;;;;;;;6217416;28;20073;-71
2022/03/27 13:10:13;;;;;;;17.85;15.95;;;;;;;;;;6220205;28;20504;-71
2022/03/27 13:13:17;;;;;;;19.67;16.10;;;;;;;;;;6220582;28;20670;-72
2022/03/27 13:16:21;;;;;;;20.15;15.57;;;;;;;;;;6220480;28;20046;-72
2022/03/27 13:19:24;;;;;;;20.20;16.33;;;;;;;;;;6218651;28;20449;-73
2022/03/27 13:22:27;;;;;;;19.10;15.55;;;;;;;;;;6222801;28;20275;-72
2022/03/27 13:25:28;;;;;;;18.27;15.27;;;;;;;;;;6220432;28;20383;-72
2022/03/27 13:28:30;;;;;;;18.05;15.00;;;;;;;;;;6221841;28;20428;-70
2022/03/27 13:31:34;;;;;;;19.67;15.25;;;;;;;;;;6220775;28;20171;-69
2022/03/27 13:34:37;;;;;;;17.17;14.13;;;;;;;;;;6219141;28;20053;-73
2022/03/27 13:37:40;;;;;;;15.68;13.32;;;;;;;;;;6219981;28;20042;-73
2022/03/27 13:44:01;;;;;;;17.50;13.52;;;;;;;;;;6222201;28;20125;-70
2022/03/27 13:47:04;;;;;;;15.00;13.33;;;;;;;;;;6222634;28;20053;-71
2022/03/27 13:50:06;;;;;;;17.13;14.02;;;;;;;;;;6223603;28;20549;-71
2022/03/27 13:53:09;;;;;;;18.40;14.60;;;;;;;;;;6188155;28;20057;-71
2022/03/27 13:56:12;;;;;;;20.30;15.80;;;;;;;;;;6219257;28;20085;-71
2022/03/27 13:59:15;;;;;;;20.40;14.95;;;;;;;;;;6219470;28;20057;-72
2022/03/27 14:02:17;;;;;;;17.38;14.25;;;;;;;;;;6217280;28;20069;-72
2022/03/27 14:05:19;;;;;;;23.95;15.75;;;;;;;;;;6219287;28;20057;-72
2022/03/27 14:08:30;;;;;;;21.80;15.80;;;;;;;;;;6220326;28;20519;-71
2022/03/27 14:11:33;;;;;;;22.15;15.43;;;;;;;;;;6218478;28;20089;-72
2022/03/27 14:14:35;;;;;;;21.02;14.88;;;;;;;;;;6219435;28;20053;-71
2022/03/27 14:17:38;;;;;;;19.00;14.48;;;;;;;;;;6218483;28;20050;-71
2022/03/27 14:20:41;;;;;;;19.88;15.48;;;;;;;;;;6219321;28;20200;-72
2022/03/27 14:23:44;;;;;;;19.27;14.82;;;;;;;;;;6218804;28;20054;-74
2022/03/27 14:26:46;;;;;;;20.23;15.73;;;;;;;;;;6219208;28;20103;-72
2022/03/27 14:29:47;;;;;;;18.70;15.00;;;;;;;;;;6219599;28;20506;-72
2022/03/27 14:32:49;;;;;;;18.90;15.77;;;;;;;;;;6221664;28;20054;-74
2022/03/27 14:35:51;;;;;;;19.92;16.15;;;;;;;;;;6226355;28;20176;-71
2022/03/27 14:38:54;;;;;;;21.65;16.40;;;;;;;;;;6223537;28;20041;-71
2022/03/27 14:41:56;;;;;;;22.75;15.18;;;;;;;;;;6225028;28;20045;-71
2022/03/27 14:44:58;;;;;;;20.95;16.27;;;;;;;;;;6221178;28;20053;-72
2022/03/27 14:48:00;;;;;;;23.80;17.77;;;;;;;;;;6221494;28;20050;-76
2022/03/27 14:51:02;;;;;;;19.90;15.15;;;;;;;;;;6222643;28;20045;-70
2022/03/27 14:57:24;;;;;;;21.08;16.33;;;;;;;;;;6221851;28;20092;-70
2022/03/27 15:00:26;;;;;;;22.63;17.50;;;;;;;;;;6222406;28;20172;-70
2022/03/27 15:03:30;;;;;;;21.52;16.73;;;;;;;;;;6222817;28;20140;-70
2022/03/27 15:06:31;;;;;;;22.65;17.30;;;;;;;;;;6222125;28;20053;-70
2022/03/27 15:09:34;;;;;;;25.48;17.23;;;;;;;;;;6222815;28;20050;-70
2022/03/27 15:12:36;;;;;;;25.75;17.10;;;;;;;;;;6222853;28;20042;-69
2022/03/27 15:15:37;;;;;;;25.98;16.98;;;;;;;;;;6221025;28;20121;-68
2022/03/27 15:18:39;;;;;;;28.48;18.70;;;;;;;;;;6223022;28;20173;-70
2022/03/27 15:21:41;;;;;;;24.00;18.42;;;;;;;;;;6222130;28;20261;-69
2022/03/27 15:24:44;;;;;;;27.92;19.23;;;;;;;;;;6221021;28;20414;-70
2022/03/27 15:27:46;;;;;;;24.50;18.42;;;;;;;;;;6223771;28;20049;-70
2022/03/27 15:30:47;;;;;;;28.60;19.17;;;;;;;;;;6221074;28;20041;-69
2022/03/27 15:33:49;;;;;;;27.77;20.10;;;;;;;;;;6219581;28;20132;-70
2022/03/27 15:36:51;;;;;;;25.63;18.75;;;;;;;;;;6220953;28;20212;-69
2022/03/27 15:39:54;;;;;;;22.65;17.75;;;;;;;;;;6221934;28;20508;-68
2022/03/27 15:42:56;;;;;;;26.95;17.25;;;;;;;;;;6220512;28;20054;-68
2022/03/27 15:45:57;;;;;;;28.27;18.33;;;;;;;;;;6220698;28;20058;-71
2022/03/27 15:48:59;;;;;;;28.35;18.73;;;;;;;;;;6219052;28;20061;-69
2022/03/27 15:52:02;;;;;;;26.02;18.35;;;;;;;;;;6219606;28;20046;-69
2022/03/27 15:55:06;;;;;;;30.83;21.35;;;;;;;;;;6219185;28;20066;-69
2022/03/27 15:58:07;;;;;;;25.75;18.02;;;;;;;;;;6220379;28;20050;-69
2022/03/27 16:01:14;;;;;;;21.55;16.52;;;;;;;;;;6218311;28;20057;-70
2022/03/27 16:04:16;;;;;;;21.13;16.52;;;;;;;;;;6219283;28;20498;-69
2022/03/27 16:07:17;;;;;;;19.45;15.30;;;;;;;;;;6218654;28;20354;-69
2022/03/27 16:10:20;;;;;;;22.48;14.95;;;;;;;;;;6219002;28;20129;-69
2022/03/27 16:13:22;;;;;;;;;;;;;;;;;;6219296;28;20131;-69
2022/03/27 16:16:23;;;;;;;15.68;12.18;;;;;;;;;;6217545;28;20064;-68
2022/03/27 16:19:25;;;;;;;16.98;12.82;;;;;;;;;;6218573;28;20151;-68
2022/03/27 16:22:27;;;;;;;17.63;13.85;;;;;;;;;;6216720;28;20050;-68
2022/03/27 16:25:29;;;;;;;18.70;13.10;;;;;;;;;;6218318;28;20176;-69
2022/03/27 16:28:31;;;;;;;23.60;14.07;;;;;;;;;;6218193;28;20168;-68
2022/03/27 16:31:33;;;;;;;22.27;14.35;;;;;;;;;;6217319;28;20136;-68
2022/03/27 16:34:34;;;;;;;21.98;15.15;;;;;;;;;;6219328;28;20375;-67
2022/03/27 16:37:36;;;;;;;20.98;14.23;;;;;;;;;;6218262;28;20099;-67
2022/03/27 16:40:39;;;;;;;20.08;12.98;;;;;;;;;;6218577;28;20079;-71
2022/03/27 16:43:40;;;;;;;23.00;14.48;;;;;;;;;;6218241;28;20048;-69
2022/03/27 16:46:43;;;;;;;23.63;15.38;;;;;;;;;;6181943;28;1079527;-69
2022/03/27 16:49:45;;;;;;;;;;;;;;;;;;6219939;28;20125;-71
2022/03/27 16:52:47;;;;;;;21.60;15.23;;;;;;;;;;6219531;28;19995;-71
2022/03/27 16:55:50;;;;;;;21.77;13.88;;;;;;;;;;6221132;28;20164;-73
2022/03/27 16:58:52;;;;;;;21.33;14.77;;;;;;;;;;6219477;28;20054;-72
2022/03/27 17:01:54;;;;;;;23.33;14.18;;;;;;;;;;6220884;28;20038;-74
2022/03/27 17:04:56;;;;;;;20.38;14.63;;;;;;;;;;6219638;28;20105;-73
2022/03/27 17:07:57;;;;;;;19.80;14.15;;;;;;;;;;6221795;28;20469;-70
2022/03/27 17:11:00;;;;;;;20.75;14.27;;;;;;;;;;6220846;28;20099;-70
2022/03/27 17:14:02;;;;;;;19.77;13.73;;;;;;;;;;6222198;28;20136;-70
2022/03/27 17:17:05;;;;;;;18.42;13.20;;;;;;;;;;6221604;28;20448;-69
2022/03/27 17:20:10;;;;;;;24.33;14.40;;;;;;;;;;6220449;28;20111;-70
2022/03/27 17:23:12;;;;;;;20.17;13.43;;;;;;;;;;6219126;28;20048;-69
2022/03/27 17:26:14;;;;;;;23.10;15.18;;;;;;;;;;6221864;28;20049;-69
2022/03/27 17:29:16;;;;;;;24.38;13.93;;;;;;;;;;6216969;28;20136;-69
2022/03/27 17:32:18;;;;;;;27.80;15.45;;;;;;;;;;6218220;28;20064;-68
2022/03/27 17:35:19;;;;;;;24.45;13.70;;;;;;;;;;6218341;28;20658;-69
2022/03/27 17:38:21;;;;;;;26.42;15.05;;;;;;;;;;6218839;28;20141;-69
2022/03/27 17:41:28;;;;;;;39.92;17.02;;;;;;;;;;6219330;28;20045;-68
2022/03/27 17:44:29;;;;;;;45.03;19.88;;;;;;;;;;6217518;28;20056;-69
2022/03/27 17:47:31;;;;;;;40.88;18.02;;;;;;;;;;6218478;28;20410;-69
2022/03/27 17:50:32;;;;;;;25.98;16.08;;;;;;;;;;6217639;28;20184;-68
2022/03/27 17:53:35;;;;;;;26.90;16.02;;;;;;;;;;6218814;28;20134;-68
2022/03/27 17:56:38;;;;;;;32.37;16.20;;;;;;;;;;6218666;28;20056;-68
2022/03/27 17:59:40;;;;;;;27.83;15.60;;;;;;;;;;6219153;28;20052;-68
2022/03/27 18:02:41;;;;;;;27.77;16.17;;;;;;;;;;6219137;28;20054;-68